Allenstown, New Hampshire
Current Conditions -  °F | °C
As of 8:51 AM on Thursday 29 Jan 2015 (Local Time) from KCON Reporting Station
Clear Clear  
Wind Chill:   Ceiling: Unl
Heat Index:   Visibility: 9mi
Dew Point: -3°   Wind: 0mph
Humidity: 83%   Direction: NA
Pressure: 30.32"   Gusts: NA
Location:  43.1606°N, 71.4143°W
Report Text: KCON 291351Z AUTO 00000KT 9SM CLR M17/M19 A3032 RMK AO2 SLP275 T11721194
Loading
Personal Weather Stations






























Interactive Weather Map New forecast layout! Learn more

10-Day Weather Forecast

Advertisements
Track Severe Weather on mobile